sensor_id;sensor_type;location;lat;lon;timestamp;temperature;humidity
32749;DHT22;19119;52.474;13.710;2023-04-01T00:01:33;10.00;99.90
32749;DHT22;19119;52.474;13.710;2023-04-01T00:03:58;9.90;99.90
32749;DHT22;19119;52.474;13.710;2023-04-01T00:06:27;10.00;99.90
32749;DHT22;19119;52.474;13.710;2023-04-01T00:08:53;10.00;99.90
32749;DHT22;19119;52.474;13.710;2023-04-01T00:11:19;10.10;99.90
32749;DHT22;19119;52.474;13.710;2023-04-01T00:13:44;10.10;99.90
32749;DHT22;19119;52.474;13.710;2023-04-01T00:16:10;10.10;99.90
32749;DHT22;19119;52.474;13.710;2023-04-01T00:18:36;10.10;99.90
32749;DHT22;19119;52.474;13.710;2023-04-01T00:21:02;10.10;99.90
32749;DHT22;19119;52.474;13.710;2023-04-01T00:23:27;10.10;99.90
32749;DHT22;19119;52.474;13.710;2023-04-01T00:25:53;10.10;99.90
32749;DHT22;19119;52.474;13.710;2023-04-01T00:28:19;10.20;99.90
32749;DHT22;19119;52.474;13.710;2023-04-01T00:30:45;10.10;99.90
32749;DHT22;19119;52.474;13.710;2023-04-01T00:33:11;10.10;99.90
32749;DHT22;19119;52.474;13.710;2023-04-01T00:35:38;10.10;99.90
32749;DHT22;19119;52.474;13.710;2023-04-01T00:38:03;10.10;99.90
32749;DHT22;19119;52.474;13.710;2023-04-01T00:40:41;10.00;99.90
32749;DHT22;19119;52.474;13.710;2023-04-01T00:43:17;9.80;99.90
32749;DHT22;19119;52.474;13.710;2023-04-01T00:45:47;9.90;99.90
32749;DHT22;19119;52.474;13.710;2023-04-01T00:48:17;9.80;99.90
32749;DHT22;19119;52.474;13.710;2023-04-01T00:50:54;9.80;99.90
32749;DHT22;19119;52.474;13.710;2023-04-01T00:53:22;9.70;99.90
32749;DHT22;19119;52.474;13.710;2023-04-01T00:55:57;9.70;99.90
32749;DHT22;19119;52.474;13.710;2023-04-01T00:58:24;9.70;99.90
32749;DHT22;19119;52.474;13.710;2023-04-01T01:00:51;9.70;99.90
32749;DHT22;19119;52.474;13.710;2023-04-01T01:03:17;9.70;99.90
32749;DHT22;19119;52.474;13.710;2023-04-01T01:06:16;9.60;99.90
32749;DHT22;19119;52.474;13.710;2023-04-01T01:09:15;9.60;99.90
32749;DHT22;19119;52.474;13.710;2023-04-01T01:11:52;9.60;99.90
32749;DHT22;19119;52.474;13.710;2023-04-01T01:14:35;9.60;99.90
32749;DHT22;19119;52.474;13.710;2023-04-01T01:17:32;9.60;99.90
32749;DHT22;19119;52.474;13.710;2023-04-01T01:25:38;9.60;99.90
32749;DHT22;19119;52.474;13.710;2023-04-01T01:31:23;9.60;99.90
32749;DHT22;19119;52.474;13.710;2023-04-01T01:36:31;9.60;99.90
32749;DHT22;19119;52.474;13.710;2023-04-01T01:39:01;9.70;99.90
32749;DHT22;19119;52.474;13.710;2023-04-01T01:41:29;9.70;99.90
32749;DHT22;19119;52.474;13.710;2023-04-01T01:43:56;9.70;99.90
32749;DHT22;19119;52.474;13.710;2023-04-01T01:46:24;9.60;99.90
32749;DHT22;19119;52.474;13.710;2023-04-01T01:48:52;9.70;99.90
32749;DHT22;19119;52.474;13.710;2023-04-01T01:51:20;9.70;99.90
32749;DHT22;19119;52.474;13.710;2023-04-01T01:53:46;9.70;99.90
32749;DHT22;19119;52.474;13.710;2023-04-01T01:56:12;9.70;99.90
32749;DHT22;19119;52.474;13.710;2023-04-01T01:58:43;9.60;99.90
32749;DHT22;19119;52.474;13.710;2023-04-01T02:01:16;9.70;99.90
32749;DHT22;19119;52.474;13.710;2023-04-01T02:03:44;9.60;99.90
32749;DHT22;19119;52.474;13.710;2023-04-01T02:06:15;9.60;99.90
32749;DHT22;19119;52.474;13.710;2023-04-01T02:09:00;9.60;99.90
32749;DHT22;19119;52.474;13.710;2023-04-01T02:11:51;9.60;99.90
32749;DHT22;19119;52.474;13.710;2023-04-01T02:14:21;9.60;99.90
32749;DHT22;19119;52.474;13.710;2023-04-01T02:16:53;9.60;99.90
32749;DHT22;19119;52.474;13.710;2023-04-01T02:19:20;9.60;99.90
32749;DHT22;19119;52.474;13.710;2023-04-01T02:21:53;9.70;99.90
32749;DHT22;19119;52.474;13.710;2023-04-01T02:24:20;9.70;99.90
32749;DHT22;19119;52.474;13.710;2023-04-01T02:26:49;9.70;99.90
32749;DHT22;19119;52.474;13.710;2023-04-01T02:29:18;9.80;99.90
32749;DHT22;19119;52.474;13.710;2023-04-01T02:31:45;9.70;99.90
32749;DHT22;19119;52.474;13.710;2023-04-01T02:34:11;9.70;99.90
32749;DHT22;19119;52.474;13.710;2023-04-01T02:36:36;9.70;99.90
32749;DHT22;19119;52.474;13.710;2023-04-01T02:39:03;9.70;99.90
32749;DHT22;19119;52.474;13.710;2023-04-01T02:41:30;9.70;99.90
32749;DHT22;19119;52.474;13.710;2023-04-01T02:43:56;9.80;99.90
32749;DHT22;19119;52.474;13.710;2023-04-01T02:46:24;9.80;99.90
32749;DHT22;19119;52.474;13.710;2023-04-01T02:48:49;9.90;99.90
32749;DHT22;19119;52.474;13.710;2023-04-01T02:51:15;9.90;99.90
32749;DHT22;19119;52.474;13.710;2023-04-01T02:53:40;9.90;99.90
32749;DHT22;19119;52.474;13.710;2023-04-01T02:56:06;9.90;99.90
32749;DHT22;19119;52.474;13.710;2023-04-01T02:58:32;9.90;99.90
32749;DHT22;19119;52.474;13.710;2023-04-01T03:00:57;9.90;99.90
32749;DHT22;19119;52.474;13.710;2023-04-01T03:03:23;9.90;99.90
32749;DHT22;19119;52.474;13.710;2023-04-01T03:05:48;9.90;99.90
32749;DHT22;19119;52.474;13.710;2023-04-01T03:08:14;9.90;99.90
32749;DHT22;19119;52.474;13.710;2023-04-01T03:10:39;9.90;99.90
32749;DHT22;19119;52.474;13.710;2023-04-01T03:13:05;9.90;99.90
32749;DHT22;19119;52.474;13.710;2023-04-01T03:15:31;9.90;99.90
32749;DHT22;19119;52.474;13.710;2023-04-01T03:17:57;9.90;99.90
32749;DHT22;19119;52.474;13.710;2023-04-01T03:20:22;10.00;99.90
32749;DHT22;19119;52.474;13.710;2023-04-01T03:22:48;9.90;99.90
32749;DHT22;19119;52.474;13.710;2023-04-01T03:25:13;9.90;99.90
32749;DHT22;19119;52.474;13.710;2023-04-01T03:27:39;9.90;99.90
32749;DHT22;19119;52.474;13.710;2023-04-01T03:30:05;10.00;99.90
32749;DHT22;19119;52.474;13.710;2023-04-01T03:32:31;9.90;99.90
32749;DHT22;19119;52.474;13.710;2023-04-01T03:34:57;10.00;99.90
32749;DHT22;19119;52.474;13.710;2023-04-01T03:37:23;10.00;99.90
32749;DHT22;19119;52.474;13.710;2023-04-01T03:39:49;9.90;99.90
32749;DHT22;19119;52.474;13.710;2023-04-01T03:42:14;9.90;99.90
32749;DHT22;19119;52.474;13.710;2023-04-01T03:44:40;10.00;99.90
32749;DHT22;19119;52.474;13.710;2023-04-01T03:47:06;10.10;99.90
32749;DHT22;19119;52.474;13.710;2023-04-01T03:49:31;10.00;99.90
32749;DHT22;19119;52.474;13.710;2023-04-01T03:51:58;9.90;99.90
32749;DHT22;19119;52.474;13.710;2023-04-01T03:54:24;10.00;99.90
32749;DHT22;19119;52.474;13.710;2023-04-01T03:56:49;10.00;99.90
32749;DHT22;19119;52.474;13.710;2023-04-01T03:59:15;10.00;99.90
32749;DHT22;19119;52.474;13.710;2023-04-01T04:01:41;9.90;99.90
32749;DHT22;19119;52.474;13.710;2023-04-01T04:04:06;10.00;99.90
32749;DHT22;19119;52.474;13.710;2023-04-01T04:06:33;10.00;99.90
32749;DHT22;19119;52.474;13.710;2023-04-01T04:08:58;10.00;99.90
32749;DHT22;19119;52.474;13.710;2023-04-01T04:11:24;10.00;99.90
32749;DHT22;19119;52.474;13.710;2023-04-01T04:13:51;10.10;99.90
32749;DHT22;19119;52.474;13.710;2023-04-01T04:16:19;10.00;99.90
32749;DHT22;19119;52.474;13.710;2023-04-01T04:18:44;10.10;99.90
32749;DHT22;19119;52.474;13.710;2023-04-01T04:21:13;10.10;99.90
32749;DHT22;19119;52.474;13.710;2023-04-01T04:23:39;10.10;99.90
32749;DHT22;19119;52.474;13.710;2023-04-01T04:26:07;10.10;99.90
32749;DHT22;19119;52.474;13.710;2023-04-01T04:28:33;10.10;99.90
32749;DHT22;19119;52.474;13.710;2023-04-01T04:30:58;10.10;99.90
32749;DHT22;19119;52.474;13.710;2023-04-01T04:33:25;10.10;99.90
32749;DHT22;19119;52.474;13.710;2023-04-01T04:35:51;10.10;99.90
32749;DHT22;19119;52.474;13.710;2023-04-01T04:38:19;10.10;99.90
32749;DHT22;19119;52.474;13.710;2023-04-01T04:40:45;10.00;99.90
32749;DHT22;19119;52.474;13.710;2023-04-01T04:43:12;10.00;99.90
32749;DHT22;19119;52.474;13.710;2023-04-01T04:45:37;10.00;99.90
32749;DHT22;19119;52.474;13.710;2023-04-01T04:48:03;10.10;99.90
32749;DHT22;19119;52.474;13.710;2023-04-01T04:50:28;10.10;99.90
32749;DHT22;19119;52.474;13.710;2023-04-01T04:52:54;10.10;99.90
32749;DHT22;19119;52.474;13.710;2023-04-01T04:55:20;10.20;99.90
32749;DHT22;19119;52.474;13.710;2023-04-01T04:57:46;10.20;99.90
32749;DHT22;19119;52.474;13.710;2023-04-01T05:00:11;10.20;99.90
32749;DHT22;19119;52.474;13.710;2023-04-01T05:02:37;10.20;99.90
32749;DHT22;19119;52.474;13.710;2023-04-01T05:05:03;10.10;99.90
32749;DHT22;19119;52.474;13.710;2023-04-01T05:07:29;10.20;99.90
32749;DHT22;19119;52.474;13.710;2023-04-01T05:09:55;10.20;99.90
32749;DHT22;19119;52.474;13.710;2023-04-01T05:12:20;10.20;99.90
32749;DHT22;19119;52.474;13.710;2023-04-01T05:14:46;10.30;99.90
32749;DHT22;19119;52.474;13.710;2023-04-01T05:17:12;10.30;99.90
32749;DHT22;19119;52.474;13.710;2023-04-01T05:19:38;10.30;99.90
32749;DHT22;19119;52.474;13.710;2023-04-01T05:22:04;10.30;99.90
32749;DHT22;19119;52.474;13.710;2023-04-01T05:24:30;10.20;99.90
32749;DHT22;19119;52.474;13.710;2023-04-01T05:26:56;10.20;99.90
32749;DHT22;19119;52.474;13.710;2023-04-01T05:29:23;10.30;99.90
32749;DHT22;19119;52.474;13.710;2023-04-01T05:31:48;10.30;99.90
32749;DHT22;19119;52.474;13.710;2023-04-01T05:34:14;10.20;99.90
32749;DHT22;19119;52.474;13.710;2023-04-01T05:36:40;10.30;99.90
32749;DHT22;19119;52.474;13.710;2023-04-01T05:39:07;10.30;99.90
32749;DHT22;19119;52.474;13.710;2023-04-01T05:41:35;10.30;99.90
32749;DHT22;19119;52.474;13.710;2023-04-01T05:44:01;10.30;99.90
32749;DHT22;19119;52.474;13.710;2023-04-01T05:46:26;10.40;99.90
32749;DHT22;19119;52.474;13.710;2023-04-01T05:48:52;10.30;99.90
32749;DHT22;19119;52.474;13.710;2023-04-01T05:51:17;10.30;99.90
32749;DHT22;19119;52.474;13.710;2023-04-01T05:53:43;10.30;99.90
32749;DHT22;19119;52.474;13.710;2023-04-01T05:56:09;10.30;99.90
32749;DHT22;19119;52.474;13.710;2023-04-01T05:58:35;10.30;99.90
32749;DHT22;19119;52.474;13.710;2023-04-01T06:01:03;10.30;99.90
32749;DHT22;19119;52.474;13.710;2023-04-01T06:03:29;10.30;99.90
32749;DHT22;19119;52.474;13.710;2023-04-01T06:05:55;10.30;99.90
32749;DHT22;19119;52.474;13.710;2023-04-01T06:08:20;10.30;99.90
32749;DHT22;19119;52.474;13.710;2023-04-01T06:10:58;10.30;99.90
32749;DHT22;19119;52.474;13.710;2023-04-01T06:22:19;10.20;99.90
32749;DHT22;19119;52.474;13.710;2023-04-01T06:28:01;10.30;99.90
32749;DHT22;19119;52.474;13.710;2023-04-01T06:33:33;10.30;99.90
32749;DHT22;19119;52.474;13.710;2023-04-01T06:36:20;10.40;99.90
32749;DHT22;19119;52.474;13.710;2023-04-01T06:44:19;10.30;99.90
32749;DHT22;19119;52.474;13.710;2023-04-01T06:50:24;10.30;99.90
32749;DHT22;19119;52.474;13.710;2023-04-01T06:53:09;10.30;99.90
32749;DHT22;19119;52.474;13.710;2023-04-01T06:55:50;10.40;99.90
32749;DHT22;19119;52.474;13.710;2023-04-01T06:58:26;10.40;99.90
32749;DHT22;19119;52.474;13.710;2023-04-01T07:00:56;10.30;99.90
32749;DHT22;19119;52.474;13.710;2023-04-01T07:03:36;10.40;99.90
32749;DHT22;19119;52.474;13.710;2023-04-01T07:06:23;10.50;99.90
32749;DHT22;19119;52.474;13.710;2023-04-01T07:08:53;10.50;99.90
32749;DHT22;19119;52.474;13.710;2023-04-01T07:11:34;10.60;99.90
32749;DHT22;19119;52.474;13.710;2023-04-01T07:14:04;10.50;99.90
32749;DHT22;19119;52.474;13.710;2023-04-01T07:16:48;10.40;99.90
32749;DHT22;19119;52.474;13.710;2023-04-01T07:19:22;10.50;99.90
32749;DHT22;19119;52.474;13.710;2023-04-01T07:21:53;10.50;99.90
32749;DHT22;19119;52.474;13.710;2023-04-01T07:24:34;10.60;99.90
32749;DHT22;19119;52.474;13.710;2023-04-01T07:27:01;10.70;99.90
32749;DHT22;19119;52.474;13.710;2023-04-01T07:29:27;10.80;99.90
32749;DHT22;19119;52.474;13.710;2023-04-01T07:35:03;10.90;99.90
32749;DHT22;19119;52.474;13.710;2023-04-01T07:37:39;11.00;99.90
32749;DHT22;19119;52.474;13.710;2023-04-01T07:40:20;11.10;99.90
32749;DHT22;19119;52.474;13.710;2023-04-01T07:45:38;11.10;99.90
32749;DHT22;19119;52.474;13.710;2023-04-01T07:50:40;11.20;99.90
32749;DHT22;19119;52.474;13.710;2023-04-01T07:53:24;11.20;99.90
32749;DHT22;19119;52.474;13.710;2023-04-01T08:01:05;11.20;99.90
32749;DHT22;19119;52.474;13.710;2023-04-01T08:06:25;11.20;99.90
32749;DHT22;19119;52.474;13.710;2023-04-01T08:09:22;11.40;99.90
32749;DHT22;19119;52.474;13.710;2023-04-01T08:12:04;11.40;99.90
32749;DHT22;19119;52.474;13.710;2023-04-01T08:14:40;11.20;99.90
32749;DHT22;19119;52.474;13.710;2023-04-01T08:20:00;10.80;99.90
32749;DHT22;19119;52.474;13.710;2023-04-01T08:22:49;11.10;99.90
32749;DHT22;19119;52.474;13.710;2023-04-01T08:25:26;11.10;99.90
32749;DHT22;19119;52.474;13.710;2023-04-01T08:28:17;10.70;99.90
32749;DHT22;19119;52.474;13.710;2023-04-01T08:33:34;10.50;99.90
32749;DHT22;19119;52.474;13.710;2023-04-01T08:38:43;10.30;99.90
32749;DHT22;19119;52.474;13.710;2023-04-01T08:44:39;10.20;99.90
32749;DHT22;19119;52.474;13.710;2023-04-01T08:52:36;10.40;99.90
32749;DHT22;19119;52.474;13.710;2023-04-01T09:00:56;10.20;99.90
32749;DHT22;19119;52.474;13.710;2023-04-01T09:03:36;10.20;99.90
32749;DHT22;19119;52.474;13.710;2023-04-01T09:18:26;10.30;99.90
32749;DHT22;19119;52.474;13.710;2023-04-01T09:21:06;10.30;99.90
32749;DHT22;19119;52.474;13.710;2023-04-01T09:23:59;10.20;99.90
32749;DHT22;19119;52.474;13.710;2023-04-01T09:32:40;10.00;99.90
32749;DHT22;19119;52.474;13.710;2023-04-01T09:40:55;9.90;99.90
32749;DHT22;19119;52.474;13.710;2023-04-01T09:54:36;9.80;99.90
32749;DHT22;19119;52.474;13.710;2023-04-01T10:00:32;9.90;99.90
32749;DHT22;19119;52.474;13.710;2023-04-01T10:06:21;9.70;99.90
32749;DHT22;19119;52.474;13.710;2023-04-01T10:09:17;9.70;99.90
32749;DHT22;19119;52.474;13.710;2023-04-01T10:20:12;9.60;99.90
32749;DHT22;19119;52.474;13.710;2023-04-01T10:26:05;9.60;99.90
32749;DHT22;19119;52.474;13.710;2023-04-01T10:45:52;9.60;99.90
32749;DHT22;19119;52.474;13.710;2023-04-01T10:54:40;9.40;99.90
32749;DHT22;19119;52.474;13.710;2023-04-01T11:05:58;9.30;99.90
32749;DHT22;19119;52.474;13.710;2023-04-01T11:08:54;9.30;99.90
32749;DHT22;19119;52.474;13.710;2023-04-01T11:14:34;9.40;99.90
32749;DHT22;19119;52.474;13.710;2023-04-01T11:17:28;9.40;99.90
32749;DHT22;19119;52.474;13.710;2023-04-01T11:28:34;9.20;99.90
32749;DHT22;19119;52.474;13.710;2023-04-01T11:31:25;9.20;99.90
32749;DHT22;19119;52.474;13.710;2023-04-01T11:45:10;9.10;99.90
32749;DHT22;19119;52.474;13.710;2023-04-01T11:50:40;9.00;99.90
32749;DHT22;19119;52.474;13.710;2023-04-01T11:56:58;9.20;99.90
32749;DHT22;19119;52.474;13.710;2023-04-01T12:04:58;9.20;99.90
32749;DHT22;19119;52.474;13.710;2023-04-01T12:10:48;9.00;99.90
32749;DHT22;19119;52.474;13.710;2023-04-01T12:13:30;9.00;99.90
32749;DHT22;19119;52.474;13.710;2023-04-01T12:16:08;9.00;99.90
32749;DHT22;19119;52.474;13.710;2023-04-01T12:18:43;9.10;99.90
32749;DHT22;19119;52.474;13.710;2023-04-01T12:21:35;9.30;99.90
32749;DHT22;19119;52.474;13.710;2023-04-01T12:32:55;9.20;99.90
32749;DHT22;19119;52.474;13.710;2023-04-01T12:38:43;9.00;99.90
32749;DHT22;19119;52.474;13.710;2023-04-01T12:41:17;9.10;99.90
32749;DHT22;19119;52.474;13.710;2023-04-01T12:46:57;8.70;99.90
32749;DHT22;19119;52.474;13.710;2023-04-01T13:00:45;8.80;99.90
32749;DHT22;19119;52.474;13.710;2023-04-01T13:08:53;8.80;99.90
32749;DHT22;19119;52.474;13.710;2023-04-01T13:17:22;8.80;99.90
32749;DHT22;19119;52.474;13.710;2023-04-01T13:23:20;8.60;99.90
32749;DHT22;19119;52.474;13.710;2023-04-01T13:26:03;8.50;99.90
32749;DHT22;19119;52.474;13.710;2023-04-01T13:39:34;8.60;99.90
32749;DHT22;19119;52.474;13.710;2023-04-01T13:42:12;8.60;99.90
32749;DHT22;19119;52.474;13.710;2023-04-01T13:45:31;8.60;99.90
32749;DHT22;19119;52.474;13.710;2023-04-01T14:02:29;8.60;99.90
32749;DHT22;19119;52.474;13.710;2023-04-01T14:08:25;8.60;99.90
32749;DHT22;19119;52.474;13.710;2023-04-01T14:10:59;8.70;99.90
32749;DHT22;19119;52.474;13.710;2023-04-01T14:13:38;8.60;99.90
32749;DHT22;19119;52.474;13.710;2023-04-01T14:25:10;8.50;99.90
32749;DHT22;19119;52.474;13.710;2023-04-01T14:30:35;8.50;99.90
32749;DHT22;19119;52.474;13.710;2023-04-01T14:42:15;8.20;99.90
32749;DHT22;19119;52.474;13.710;2023-04-01T14:51:38;8.10;99.90
32749;DHT22;19119;52.474;13.710;2023-04-01T14:53:35;8.20;99.90
32749;DHT22;19119;52.474;13.710;2023-04-01T14:56:03;8.10;99.90
32749;DHT22;19119;52.474;13.710;2023-04-01T14:58:46;8.10;99.90
32749;DHT22;19119;52.474;13.710;2023-04-01T15:03:54;8.10;99.90
32749;DHT22;19119;52.474;13.710;2023-04-01T15:09:21;8.00;99.90
32749;DHT22;19119;52.474;13.710;2023-04-01T15:14:30;8.10;99.90
32749;DHT22;19119;52.474;13.710;2023-04-01T15:17:21;8.00;99.90
32749;DHT22;19119;52.474;13.710;2023-04-01T15:22:43;8.10;99.90
32749;DHT22;19119;52.474;13.710;2023-04-01T15:39:13;7.70;99.90
32749;DHT22;19119;52.474;13.710;2023-04-01T15:53:25;7.50;99.90
32749;DHT22;19119;52.474;13.710;2023-04-01T15:58:28;7.40;99.90
32749;DHT22;19119;52.474;13.710;2023-04-01T16:03:36;7.40;99.90
32749;DHT22;19119;52.474;13.710;2023-04-01T16:06:11;7.40;99.90
32749;DHT22;19119;52.474;13.710;2023-04-01T16:08:55;7.30;99.90
32749;DHT22;19119;52.474;13.710;2023-04-01T16:11:53;7.40;99.90
32749;DHT22;19119;52.474;13.710;2023-04-01T16:14:47;7.40;99.90
32749;DHT22;19119;52.474;13.710;2023-04-01T16:22:38;7.20;99.90
32749;DHT22;19119;52.474;13.710;2023-04-01T16:25:29;7.20;99.90
32749;DHT22;19119;52.474;13.710;2023-04-01T16:31:29;7.20;99.90
32749;DHT22;19119;52.474;13.710;2023-04-01T16:34:20;7.20;99.90
32749;DHT22;19119;52.474;13.710;2023-04-01T16:36:54;7.20;99.90
32749;DHT22;19119;52.474;13.710;2023-04-01T16:39:37;7.00;99.90
32749;DHT22;19119;52.474;13.710;2023-04-01T16:42:26;7.00;99.90
32749;DHT22;19119;52.474;13.710;2023-04-01T16:47:46;6.90;99.90
32749;DHT22;19119;52.474;13.710;2023-04-01T16:50:19;7.00;99.90
32749;DHT22;19119;52.474;13.710;2023-04-01T16:52:54;7.00;99.90
32749;DHT22;19119;52.474;13.710;2023-04-01T16:55:54;6.90;99.90
32749;DHT22;19119;52.474;13.710;2023-04-01T16:58:40;6.70;99.90
32749;DHT22;19119;52.474;13.710;2023-04-01T17:01:17;6.60;99.90
32749;DHT22;19119;52.474;13.710;2023-04-01T17:03:46;6.70;99.90
32749;DHT22;19119;52.474;13.710;2023-04-01T17:12:24;6.70;99.90
32749;DHT22;19119;52.474;13.710;2023-04-01T17:14:54;6.70;99.90
32749;DHT22;19119;52.474;13.710;2023-04-01T17:17:34;6.70;99.90
32749;DHT22;19119;52.474;13.710;2023-04-01T17:22:56;6.70;99.90
32749;DHT22;19119;52.474;13.710;2023-04-01T17:25:31;6.60;99.90
32749;DHT22;19119;52.474;13.710;2023-04-01T17:33:45;6.40;99.90
32749;DHT22;19119;52.474;13.710;2023-04-01T17:36:42;6.30;99.90
32749;DHT22;19119;52.474;13.710;2023-04-01T17:39:33;6.30;99.90
32749;DHT22;19119;52.474;13.710;2023-04-01T17:42:14;6.20;99.90
32749;DHT22;19119;52.474;13.710;2023-04-01T17:58:19;6.20;99.90
32749;DHT22;19119;52.474;13.710;2023-04-01T18:12:31;6.00;99.90
32749;DHT22;19119;52.474;13.710;2023-04-01T18:18:26;6.10;99.90
32749;DHT22;19119;52.474;13.710;2023-04-01T18:23:43;5.90;99.90
32749;DHT22;19119;52.474;13.710;2023-04-01T18:26:18;5.80;99.90
32749;DHT22;19119;52.474;13.710;2023-04-01T18:28:54;5.80;99.90
32749;DHT22;19119;52.474;13.710;2023-04-01T18:31:24;5.80;99.90
32749;DHT22;19119;52.474;13.710;2023-04-01T18:36:40;5.70;99.90
32749;DHT22;19119;52.474;13.710;2023-04-01T18:39:39;5.60;99.90
32749;DHT22;19119;52.474;13.710;2023-04-01T18:42:29;5.60;99.90
32749;DHT22;19119;52.474;13.710;2023-04-01T18:45:26;5.60;99.90
32749;DHT22;19119;52.474;13.710;2023-04-01T18:48:06;5.50;99.90
32749;DHT22;19119;52.474;13.710;2023-04-01T18:50:52;5.50;99.90
32749;DHT22;19119;52.474;13.710;2023-04-01T18:53:41;5.40;99.90
32749;DHT22;19119;52.474;13.710;2023-04-01T19:02:45;5.40;99.90
32749;DHT22;19119;52.474;13.710;2023-04-01T19:05:19;5.40;99.90
32749;DHT22;19119;52.474;13.710;2023-04-01T19:07:55;5.40;99.90
32749;DHT22;19119;52.474;13.710;2023-04-01T19:10:39;5.40;99.90
32749;DHT22;19119;52.474;13.710;2023-04-01T19:13:23;5.30;99.90
32749;DHT22;19119;52.474;13.710;2023-04-01T19:16:04;5.30;99.90
32749;DHT22;19119;52.474;13.710;2023-04-01T19:24:07;5.10;99.90
32749;DHT22;19119;52.474;13.710;2023-04-01T19:35:19;5.10;99.90
32749;DHT22;19119;52.474;13.710;2023-04-01T19:38:12;5.10;99.90
32749;DHT22;19119;52.474;13.710;2023-04-01T19:49:33;5.00;99.90
32749;DHT22;19119;52.474;13.710;2023-04-01T19:52:29;4.90;99.90
32749;DHT22;19119;52.474;13.710;2023-04-01T19:55:21;4.90;99.90
32749;DHT22;19119;52.474;13.710;2023-04-01T19:58:00;4.80;99.90
32749;DHT22;19119;52.474;13.710;2023-04-01T20:00:33;4.80;99.90
32749;DHT22;19119;52.474;13.710;2023-04-01T20:03:43;4.80;99.90
32749;DHT22;19119;52.474;13.710;2023-04-01T20:11:50;4.70;99.90
32749;DHT22;19119;52.474;13.710;2023-04-01T20:20:18;4.70;99.90
32749;DHT22;19119;52.474;13.710;2023-04-01T20:25:20;4.60;99.90
32749;DHT22;19119;52.474;13.710;2023-04-01T20:28:00;4.60;99.90
32749;DHT22;19119;52.474;13.710;2023-04-01T20:36:26;4.60;99.90
32749;DHT22;19119;52.474;13.710;2023-04-01T20:39:35;4.50;99.90
32749;DHT22;19119;52.474;13.710;2023-04-01T20:42:34;4.50;99.90
32749;DHT22;19119;52.474;13.710;2023-04-01T20:45:31;4.40;99.90
32749;DHT22;19119;52.474;13.710;2023-04-01T20:50:51;4.40;99.90
32749;DHT22;19119;52.474;13.710;2023-04-01T20:56:23;4.20;99.90
32749;DHT22;19119;52.474;13.710;2023-04-01T20:58:58;4.20;99.90
32749;DHT22;19119;52.474;13.710;2023-04-01T21:18:28;4.20;99.90
32749;DHT22;19119;52.474;13.710;2023-04-01T21:21:23;4.20;99.90
32749;DHT22;19119;52.474;13.710;2023-04-01T21:27:16;4.10;99.90
32749;DHT22;19119;52.474;13.710;2023-04-01T21:33:05;4.10;99.90
32749;DHT22;19119;52.474;13.710;2023-04-01T21:41:22;4.10;99.90
32749;DHT22;19119;52.474;13.710;2023-04-01T21:58:09;3.90;99.90
32749;DHT22;19119;52.474;13.710;2023-04-01T22:01:09;4.00;99.90
32749;DHT22;19119;52.474;13.710;2023-04-01T22:04:03;3.90;99.90
32749;DHT22;19119;52.474;13.710;2023-04-01T22:06:39;3.90;99.90
32749;DHT22;19119;52.474;13.710;2023-04-01T22:09:32;4.00;99.90
32749;DHT22;19119;52.474;13.710;2023-04-01T22:12:04;4.00;99.90
32749;DHT22;19119;52.474;13.710;2023-04-01T22:14:53;3.90;99.90
32749;DHT22;19119;52.474;13.710;2023-04-01T22:17:38;4.00;99.90
32749;DHT22;19119;52.474;13.710;2023-04-01T22:22:55;3.90;99.90
32749;DHT22;19119;52.474;13.710;2023-04-01T22:25:40;3.90;99.90
32749;DHT22;19119;52.474;13.710;2023-04-01T22:28:09;3.90;99.90
32749;DHT22;19119;52.474;13.710;2023-04-01T22:30:44;4.00;99.90
32749;DHT22;19119;52.474;13.710;2023-04-01T22:33:42;4.00;99.90
32749;DHT22;19119;52.474;13.710;2023-04-01T22:39:23;3.90;99.90
32749;DHT22;19119;52.474;13.710;2023-04-01T22:45:03;3.90;99.90
32749;DHT22;19119;52.474;13.710;2023-04-01T22:47:52;3.80;99.90
32749;DHT22;19119;52.474;13.710;2023-04-01T22:50:33;3.80;99.90
32749;DHT22;19119;52.474;13.710;2023-04-01T22:53:43;3.70;99.90
32749;DHT22;19119;52.474;13.710;2023-04-01T22:56:18;3.70;99.90
32749;DHT22;19119;52.474;13.710;2023-04-01T22:59:02;3.80;99.90
32749;DHT22;19119;52.474;13.710;2023-04-01T23:01:35;3.80;99.90
32749;DHT22;19119;52.474;13.710;2023-04-01T23:04:04;3.80;99.90
32749;DHT22;19119;52.474;13.710;2023-04-01T23:06:42;3.90;99.90
32749;DHT22;19119;52.474;13.710;2023-04-01T23:09:27;3.80;99.90
32749;DHT22;19119;52.474;13.710;2023-04-01T23:12:07;3.70;99.90
32749;DHT22;19119;52.474;13.710;2023-04-01T23:14:44;3.80;99.90
32749;DHT22;19119;52.474;13.710;2023-04-01T23:25:43;3.70;99.90
32749;DHT22;19119;52.474;13.710;2023-04-01T23:30:58;3.60;99.90
32749;DHT22;19119;52.474;13.710;2023-04-01T23:33:29;3.70;99.90
32749;DHT22;19119;52.474;13.710;2023-04-01T23:36:09;3.60;99.90
32749;DHT22;19119;52.474;13.710;2023-04-01T23:38:38;3.60;99.90
32749;DHT22;19119;52.474;13.710;2023-04-01T23:41:07;3.50;99.90
32749;DHT22;19119;52.474;13.710;2023-04-01T23:43:39;3.60;99.90
32749;DHT22;19119;52.474;13.710;2023-04-01T23:46:06;3.60;99.90
32749;DHT22;19119;52.474;13.710;2023-04-01T23:48:38;3.60;99.90
32749;DHT22;19119;52.474;13.710;2023-04-01T23:51:18;3.60;99.90
32749;DHT22;19119;52.474;13.710;2023-04-01T23:53:46;3.50;99.90
32749;DHT22;19119;52.474;13.710;2023-04-01T23:56:17;3.50;99.90
32749;DHT22;19119;52.474;13.710;2023-04-01T23:58:49;3.50;99.90
